sensor_id;sensor_type;location;lat;lon;timestamp;temperature;humidity
2539;DHT22;1280;49.760;9.664;2023-08-17T00:00:51;23.20;78.50
2539;DHT22;1280;49.760;9.664;2023-08-17T00:03:19;23.30;78.40
2539;DHT22;1280;49.760;9.664;2023-08-17T00:05:47;23.30;78.40
2539;DHT22;1280;49.760;9.664;2023-08-17T00:08:15;23.30;78.40
2539;DHT22;1280;49.760;9.664;2023-08-17T00:10:45;23.30;78.50
2539;DHT22;1280;49.760;9.664;2023-08-17T00:13:14;23.30;78.50
2539;DHT22;1280;49.760;9.664;2023-08-17T00:15:42;23.40;78.50
2539;DHT22;1280;49.760;9.664;2023-08-17T00:18:12;23.40;78.40
2539;DHT22;1280;49.760;9.664;2023-08-17T00:20:40;23.50;78.20
2539;DHT22;1280;49.760;9.664;2023-08-17T00:23:08;23.60;78.10
2539;DHT22;1280;49.760;9.664;2023-08-17T00:25:36;23.60;78.10
2539;DHT22;1280;49.760;9.664;2023-08-17T00:28:06;23.70;78.00
2539;DHT22;1280;49.760;9.664;2023-08-17T00:30:34;23.70;77.90
2539;DHT22;1280;49.760;9.664;2023-08-17T00:33:04;23.70;77.80
2539;DHT22;1280;49.760;9.664;2023-08-17T00:35:32;23.70;77.80
2539;DHT22;1280;49.760;9.664;2023-08-17T00:38:00;23.70;77.80
2539;DHT22;1280;49.760;9.664;2023-08-17T00:40:28;23.70;77.70
2539;DHT22;1280;49.760;9.664;2023-08-17T00:42:56;23.70;77.70
2539;DHT22;1280;49.760;9.664;2023-08-17T00:45:27;23.50;77.80
2539;DHT22;1280;49.760;9.664;2023-08-17T00:47:56;23.30;78.20
2539;DHT22;1280;49.760;9.664;2023-08-17T00:50:25;23.20;78.50
2539;DHT22;1280;49.760;9.664;2023-08-17T00:52:54;23.20;78.70
2539;DHT22;1280;49.760;9.664;2023-08-17T00:55:24;23.20;78.90
2539;DHT22;1280;49.760;9.664;2023-08-17T00:57:53;23.20;79.00
2539;DHT22;1280;49.760;9.664;2023-08-17T01:00:24;23.30;79.00
2539;DHT22;1280;49.760;9.664;2023-08-17T01:02:54;23.30;79.00
2539;DHT22;1280;49.760;9.664;2023-08-17T01:05:23;23.40;79.00
2539;DHT22;1280;49.760;9.664;2023-08-17T01:07:54;23.40;79.00
2539;DHT22;1280;49.760;9.664;2023-08-17T01:10:22;23.40;79.00
2539;DHT22;1280;49.760;9.664;2023-08-17T01:12:58;23.50;78.80
2539;DHT22;1280;49.760;9.664;2023-08-17T01:15:33;23.40;78.70
2539;DHT22;1280;49.760;9.664;2023-08-17T01:18:14;23.40;78.80
2539;DHT22;1280;49.760;9.664;2023-08-17T01:24:33;23.50;78.80
2539;DHT22;1280;49.760;9.664;2023-08-17T01:27:02;23.50;78.80
2539;DHT22;1280;49.760;9.664;2023-08-17T01:29:30;23.50;78.80
2539;DHT22;1280;49.760;9.664;2023-08-17T01:32:04;23.50;78.70
2539;DHT22;1280;49.760;9.664;2023-08-17T01:34:38;23.50;78.80
2539;DHT22;1280;49.760;9.664;2023-08-17T01:37:10;23.50;78.80
2539;DHT22;1280;49.760;9.664;2023-08-17T01:39:43;23.50;78.70
2539;DHT22;1280;49.760;9.664;2023-08-17T01:42:14;23.50;78.70
2539;DHT22;1280;49.760;9.664;2023-08-17T01:44:43;23.40;78.70
2539;DHT22;1280;49.760;9.664;2023-08-17T01:47:16;23.40;78.70
2539;DHT22;1280;49.760;9.664;2023-08-17T01:49:48;23.40;78.70
2539;DHT22;1280;49.760;9.664;2023-08-17T01:52:16;23.30;78.70
2539;DHT22;1280;49.760;9.664;2023-08-17T01:54:45;23.30;78.80
2539;DHT22;1280;49.760;9.664;2023-08-17T01:57:13;23.30;78.80
2539;DHT22;1280;49.760;9.664;2023-08-17T01:59:42;23.30;78.80
2539;DHT22;1280;49.760;9.664;2023-08-17T02:02:10;23.30;78.80
2539;DHT22;1280;49.760;9.664;2023-08-17T02:04:41;23.40;78.70
2539;DHT22;1280;49.760;9.664;2023-08-17T02:07:09;23.30;78.50
2539;DHT22;1280;49.760;9.664;2023-08-17T02:09:45;23.30;78.60
2539;DHT22;1280;49.760;9.664;2023-08-17T02:12:13;23.30;78.60
2539;DHT22;1280;49.760;9.664;2023-08-17T02:14:41;23.30;78.60
2539;DHT22;1280;49.760;9.664;2023-08-17T02:17:09;23.30;78.60
2539;DHT22;1280;49.760;9.664;2023-08-17T02:19:37;23.20;78.50
2539;DHT22;1280;49.760;9.664;2023-08-17T02:22:05;23.20;78.60
2539;DHT22;1280;49.760;9.664;2023-08-17T02:24:34;23.20;78.60
2539;DHT22;1280;49.760;9.664;2023-08-17T02:27:03;23.10;78.70
2539;DHT22;1280;49.760;9.664;2023-08-17T02:29:31;23.10;78.80
2539;DHT22;1280;49.760;9.664;2023-08-17T02:32:00;23.10;78.70
2539;DHT22;1280;49.760;9.664;2023-08-17T02:34:28;23.10;78.70
2539;DHT22;1280;49.760;9.664;2023-08-17T02:36:56;23.10;78.80
2539;DHT22;1280;49.760;9.664;2023-08-17T02:39:24;23.10;78.80
2539;DHT22;1280;49.760;9.664;2023-08-17T02:41:52;23.10;78.80
2539;DHT22;1280;49.760;9.664;2023-08-17T02:44:22;23.10;78.70
2539;DHT22;1280;49.760;9.664;2023-08-17T02:46:50;23.10;78.60
2539;DHT22;1280;49.760;9.664;2023-08-17T02:49:20;23.10;78.60
2539;DHT22;1280;49.760;9.664;2023-08-17T02:51:48;23.00;78.60
2539;DHT22;1280;49.760;9.664;2023-08-17T02:54:17;23.00;78.60
2539;DHT22;1280;49.760;9.664;2023-08-17T02:56:45;23.00;78.50
2539;DHT22;1280;49.760;9.664;2023-08-17T02:59:13;22.90;78.50
2539;DHT22;1280;49.760;9.664;2023-08-17T03:01:45;22.90;78.50
2539;DHT22;1280;49.760;9.664;2023-08-17T03:04:13;22.90;78.50
2539;DHT22;1280;49.760;9.664;2023-08-17T03:06:41;22.90;78.50
2539;DHT22;1280;49.760;9.664;2023-08-17T03:09:09;22.90;78.40
2539;DHT22;1280;49.760;9.664;2023-08-17T03:11:37;22.80;78.40
2539;DHT22;1280;49.760;9.664;2023-08-17T03:14:05;22.80;78.40
2539;DHT22;1280;49.760;9.664;2023-08-17T03:16:33;22.80;78.40
2539;DHT22;1280;49.760;9.664;2023-08-17T03:19:03;22.80;78.40
2539;DHT22;1280;49.760;9.664;2023-08-17T03:21:33;22.80;78.40
2539;DHT22;1280;49.760;9.664;2023-08-17T03:24:01;22.80;78.30
2539;DHT22;1280;49.760;9.664;2023-08-17T03:26:30;22.70;78.30
2539;DHT22;1280;49.760;9.664;2023-08-17T03:28:58;22.70;78.40
2539;DHT22;1280;49.760;9.664;2023-08-17T03:31:26;22.70;78.40
2539;DHT22;1280;49.760;9.664;2023-08-17T03:33:56;22.70;78.40
2539;DHT22;1280;49.760;9.664;2023-08-17T03:36:27;22.70;78.40
2539;DHT22;1280;49.760;9.664;2023-08-17T03:38:55;22.70;78.40
2539;DHT22;1280;49.760;9.664;2023-08-17T03:41:25;22.70;78.30
2539;DHT22;1280;49.760;9.664;2023-08-17T03:43:53;22.70;78.20
2539;DHT22;1280;49.760;9.664;2023-08-17T03:46:21;22.60;78.20
2539;DHT22;1280;49.760;9.664;2023-08-17T03:48:49;22.60;78.20
2539;DHT22;1280;49.760;9.664;2023-08-17T03:51:17;22.60;78.30
2539;DHT22;1280;49.760;9.664;2023-08-17T03:53:47;22.60;78.30
2539;DHT22;1280;49.760;9.664;2023-08-17T03:56:15;22.60;78.30
2539;DHT22;1280;49.760;9.664;2023-08-17T03:58:43;22.50;78.20
2539;DHT22;1280;49.760;9.664;2023-08-17T04:01:11;22.50;78.30
2539;DHT22;1280;49.760;9.664;2023-08-17T04:03:41;22.50;78.40
2539;DHT22;1280;49.760;9.664;2023-08-17T04:06:09;22.50;78.50
2539;DHT22;1280;49.760;9.664;2023-08-17T04:08:38;22.50;78.50
2539;DHT22;1280;49.760;9.664;2023-08-17T04:11:07;22.50;78.40
2539;DHT22;1280;49.760;9.664;2023-08-17T04:13:35;22.40;78.30
2539;DHT22;1280;49.760;9.664;2023-08-17T04:16:04;22.40;78.20
2539;DHT22;1280;49.760;9.664;2023-08-17T04:18:33;22.40;78.10
2539;DHT22;1280;49.760;9.664;2023-08-17T04:21:02;22.40;78.10
2539;DHT22;1280;49.760;9.664;2023-08-17T04:23:31;22.30;78.10
2539;DHT22;1280;49.760;9.664;2023-08-17T04:25:59;22.30;78.10
2539;DHT22;1280;49.760;9.664;2023-08-17T04:28:29;22.30;78.10
2539;DHT22;1280;49.760;9.664;2023-08-17T04:30:58;22.30;78.20
2539;DHT22;1280;49.760;9.664;2023-08-17T04:33:31;22.30;78.10
2539;DHT22;1280;49.760;9.664;2023-08-17T04:35:59;22.30;78.00
2539;DHT22;1280;49.760;9.664;2023-08-17T04:38:27;22.30;78.00
2539;DHT22;1280;49.760;9.664;2023-08-17T04:40:56;22.30;78.10
2539;DHT22;1280;49.760;9.664;2023-08-17T04:43:25;22.30;78.10
2539;DHT22;1280;49.760;9.664;2023-08-17T04:45:55;22.30;78.10
2539;DHT22;1280;49.760;9.664;2023-08-17T04:48:24;22.30;78.20
2539;DHT22;1280;49.760;9.664;2023-08-17T04:50:52;22.30;78.10
2539;DHT22;1280;49.760;9.664;2023-08-17T04:53:20;22.30;78.20
2539;DHT22;1280;49.760;9.664;2023-08-17T04:55:49;22.30;78.30
2539;DHT22;1280;49.760;9.664;2023-08-17T04:58:17;22.40;78.30
2539;DHT22;1280;49.760;9.664;2023-08-17T05:00:46;22.40;78.40
2539;DHT22;1280;49.760;9.664;2023-08-17T05:03:16;22.50;78.60
2539;DHT22;1280;49.760;9.664;2023-08-17T05:05:59;22.60;78.90
2539;DHT22;1280;49.760;9.664;2023-08-17T05:08:27;22.70;79.30
2539;DHT22;1280;49.760;9.664;2023-08-17T05:10:55;23.00;79.20
2539;DHT22;1280;49.760;9.664;2023-08-17T05:13:25;23.40;78.70
2539;DHT22;1280;49.760;9.664;2023-08-17T05:15:56;24.00;78.00
2539;DHT22;1280;49.760;9.664;2023-08-17T05:18:26;24.50;77.00
2539;DHT22;1280;49.760;9.664;2023-08-17T05:20:54;25.10;76.20
2539;DHT22;1280;49.760;9.664;2023-08-17T05:23:22;25.60;75.60
2539;DHT22;1280;49.760;9.664;2023-08-17T05:25:51;26.10;74.80
2539;DHT22;1280;49.760;9.664;2023-08-17T05:28:20;26.30;73.80
2539;DHT22;1280;49.760;9.664;2023-08-17T05:30:49;26.30;73.30
2539;DHT22;1280;49.760;9.664;2023-08-17T05:33:17;26.20;73.50
2539;DHT22;1280;49.760;9.664;2023-08-17T05:35:48;26.30;73.60
2539;DHT22;1280;49.760;9.664;2023-08-17T05:38:21;26.60;73.60
2539;DHT22;1280;49.760;9.664;2023-08-17T05:40:54;27.00;73.00
2539;DHT22;1280;49.760;9.664;2023-08-17T05:43:23;27.00;71.20
2539;DHT22;1280;49.760;9.664;2023-08-17T05:45:52;26.60;70.90
2539;DHT22;1280;49.760;9.664;2023-08-17T05:48:20;26.10;71.30
2539;DHT22;1280;49.760;9.664;2023-08-17T05:50:50;25.60;71.90
2539;DHT22;1280;49.760;9.664;2023-08-17T05:53:18;25.20;72.60
2539;DHT22;1280;49.760;9.664;2023-08-17T05:55:46;25.20;73.60
2539;DHT22;1280;49.760;9.664;2023-08-17T05:58:14;25.30;73.70
2539;DHT22;1280;49.760;9.664;2023-08-17T06:00:42;25.40;73.00
2539;DHT22;1280;49.760;9.664;2023-08-17T06:03:10;25.20;72.70
2539;DHT22;1280;49.760;9.664;2023-08-17T06:05:39;25.00;72.90
2539;DHT22;1280;49.760;9.664;2023-08-17T06:08:08;24.80;73.20
2539;DHT22;1280;49.760;9.664;2023-08-17T06:10:45;24.60;73.50
2539;DHT22;1280;49.760;9.664;2023-08-17T06:13:14;24.40;73.80
2539;DHT22;1280;49.760;9.664;2023-08-17T06:15:42;24.20;74.00
2539;DHT22;1280;49.760;9.664;2023-08-17T06:18:10;24.10;74.40
2539;DHT22;1280;49.760;9.664;2023-08-17T06:20:38;24.00;74.70
2539;DHT22;1280;49.760;9.664;2023-08-17T06:23:06;23.90;74.90
2539;DHT22;1280;49.760;9.664;2023-08-17T06:25:35;23.80;75.20
2539;DHT22;1280;49.760;9.664;2023-08-17T06:28:06;23.80;75.50
2539;DHT22;1280;49.760;9.664;2023-08-17T06:30:34;23.70;75.60
2539;DHT22;1280;49.760;9.664;2023-08-17T06:33:02;23.70;75.70
2539;DHT22;1280;49.760;9.664;2023-08-17T06:35:31;23.60;76.00
2539;DHT22;1280;49.760;9.664;2023-08-17T06:37:59;23.60;76.20
2539;DHT22;1280;49.760;9.664;2023-08-17T06:40:28;23.60;76.40
2539;DHT22;1280;49.760;9.664;2023-08-17T06:42:57;23.60;76.60
2539;DHT22;1280;49.760;9.664;2023-08-17T06:45:25;23.70;76.80
2539;DHT22;1280;49.760;9.664;2023-08-17T06:47:54;23.70;76.80
2539;DHT22;1280;49.760;9.664;2023-08-17T06:50:22;23.70;76.90
2539;DHT22;1280;49.760;9.664;2023-08-17T06:52:50;23.70;77.00
2539;DHT22;1280;49.760;9.664;2023-08-17T06:55:18;23.70;77.20
2539;DHT22;1280;49.760;9.664;2023-08-17T06:57:47;23.70;77.30
2539;DHT22;1280;49.760;9.664;2023-08-17T07:00:18;23.80;77.40
2539;DHT22;1280;49.760;9.664;2023-08-17T07:02:47;23.70;77.60
2539;DHT22;1280;49.760;9.664;2023-08-17T07:05:22;23.70;77.70
2539;DHT22;1280;49.760;9.664;2023-08-17T07:07:50;23.80;77.90
2539;DHT22;1280;49.760;9.664;2023-08-17T07:10:19;23.80;77.90
2539;DHT22;1280;49.760;9.664;2023-08-17T07:12:47;23.70;77.80
2539;DHT22;1280;49.760;9.664;2023-08-17T07:15:15;23.70;78.00
2539;DHT22;1280;49.760;9.664;2023-08-17T07:17:45;23.60;78.10
2539;DHT22;1280;49.760;9.664;2023-08-17T07:20:13;23.60;78.30
2539;DHT22;1280;49.760;9.664;2023-08-17T07:22:43;23.60;78.30
2539;DHT22;1280;49.760;9.664;2023-08-17T07:25:11;23.50;78.40
2539;DHT22;1280;49.760;9.664;2023-08-17T07:27:40;23.40;78.60
2539;DHT22;1280;49.760;9.664;2023-08-17T07:30:09;23.40;78.80
2539;DHT22;1280;49.760;9.664;2023-08-17T07:32:37;23.40;79.10
2539;DHT22;1280;49.760;9.664;2023-08-17T07:35:07;23.50;79.10
2539;DHT22;1280;49.760;9.664;2023-08-17T07:37:35;23.60;79.10
2539;DHT22;1280;49.760;9.664;2023-08-17T07:40:04;23.60;79.10
2539;DHT22;1280;49.760;9.664;2023-08-17T07:42:33;23.70;79.10
2539;DHT22;1280;49.760;9.664;2023-08-17T07:45:02;23.70;79.10
2539;DHT22;1280;49.760;9.664;2023-08-17T07:47:33;23.80;79.20
2539;DHT22;1280;49.760;9.664;2023-08-17T07:50:02;23.80;79.20
2539;DHT22;1280;49.760;9.664;2023-08-17T07:52:32;23.90;79.20
2539;DHT22;1280;49.760;9.664;2023-08-17T07:55:01;24.00;79.20
2539;DHT22;1280;49.760;9.664;2023-08-17T07:57:30;24.00;79.30
2539;DHT22;1280;49.760;9.664;2023-08-17T07:59:58;24.10;79.40
2539;DHT22;1280;49.760;9.664;2023-08-17T08:02:26;24.20;79.40
2539;DHT22;1280;49.760;9.664;2023-08-17T08:04:54;24.30;79.20
2539;DHT22;1280;49.760;9.664;2023-08-17T08:07:22;24.30;79.00
2539;DHT22;1280;49.760;9.664;2023-08-17T08:09:52;24.20;79.00
2539;DHT22;1280;49.760;9.664;2023-08-17T08:12:20;24.20;79.20
2539;DHT22;1280;49.760;9.664;2023-08-17T08:14:48;24.30;79.20
2539;DHT22;1280;49.760;9.664;2023-08-17T08:17:17;24.30;79.20
2539;DHT22;1280;49.760;9.664;2023-08-17T08:19:46;24.40;79.20
2539;DHT22;1280;49.760;9.664;2023-08-17T08:22:14;24.40;79.30
2539;DHT22;1280;49.760;9.664;2023-08-17T08:24:43;24.40;79.20
2539;DHT22;1280;49.760;9.664;2023-08-17T08:27:13;24.40;79.30
2539;DHT22;1280;49.760;9.664;2023-08-17T08:29:41;24.40;79.30
2539;DHT22;1280;49.760;9.664;2023-08-17T08:32:09;24.40;79.40
2539;DHT22;1280;49.760;9.664;2023-08-17T08:34:40;24.50;79.40
2539;DHT22;1280;49.760;9.664;2023-08-17T08:37:08;24.50;79.40
2539;DHT22;1280;49.760;9.664;2023-08-17T08:39:48;24.50;79.40
2539;DHT22;1280;49.760;9.664;2023-08-17T08:42:18;24.50;79.50
2539;DHT22;1280;49.760;9.664;2023-08-17T08:44:48;24.50;79.50
2539;DHT22;1280;49.760;9.664;2023-08-17T08:47:18;24.60;79.40
2539;DHT22;1280;49.760;9.664;2023-08-17T08:50:00;24.60;79.60
2539;DHT22;1280;49.760;9.664;2023-08-17T08:52:33;24.60;79.60
2539;DHT22;1280;49.760;9.664;2023-08-17T08:55:10;24.60;79.60
2539;DHT22;1280;49.760;9.664;2023-08-17T08:57:41;24.60;79.60
2539;DHT22;1280;49.760;9.664;2023-08-17T09:00:12;24.70;79.70
2539;DHT22;1280;49.760;9.664;2023-08-17T09:02:41;24.70;79.60
2539;DHT22;1280;49.760;9.664;2023-08-17T09:05:10;24.70;79.50
2539;DHT22;1280;49.760;9.664;2023-08-17T09:07:39;24.80;79.50
2539;DHT22;1280;49.760;9.664;2023-08-17T09:10:09;24.80;79.40
2539;DHT22;1280;49.760;9.664;2023-08-17T09:12:37;24.80;79.30
2539;DHT22;1280;49.760;9.664;2023-08-17T09:15:09;24.90;79.30
2539;DHT22;1280;49.760;9.664;2023-08-17T09:17:37;24.90;79.30
2539;DHT22;1280;49.760;9.664;2023-08-17T09:20:07;24.90;79.40
2539;DHT22;1280;49.760;9.664;2023-08-17T09:22:40;25.00;79.40
2539;DHT22;1280;49.760;9.664;2023-08-17T09:25:08;25.00;79.40
2539;DHT22;1280;49.760;9.664;2023-08-17T09:27:37;25.00;79.40
2539;DHT22;1280;49.760;9.664;2023-08-17T09:30:06;25.10;79.50
2539;DHT22;1280;49.760;9.664;2023-08-17T09:32:36;25.10;79.50
2539;DHT22;1280;49.760;9.664;2023-08-17T09:35:06;25.20;79.50
2539;DHT22;1280;49.760;9.664;2023-08-17T09:37:35;25.20;79.50
2539;DHT22;1280;49.760;9.664;2023-08-17T09:40:03;25.20;79.40
2539;DHT22;1280;49.760;9.664;2023-08-17T09:42:34;25.30;79.40
2539;DHT22;1280;49.760;9.664;2023-08-17T09:45:03;25.30;79.50
2539;DHT22;1280;49.760;9.664;2023-08-17T09:47:31;25.40;79.60
2539;DHT22;1280;49.760;9.664;2023-08-17T09:50:01;25.40;79.50
2539;DHT22;1280;49.760;9.664;2023-08-17T09:52:38;25.50;79.60
2539;DHT22;1280;49.760;9.664;2023-08-17T09:55:07;25.50;79.50
2539;DHT22;1280;49.760;9.664;2023-08-17T09:57:37;25.50;79.40
2539;DHT22;1280;49.760;9.664;2023-08-17T10:00:07;25.60;79.40
2539;DHT22;1280;49.760;9.664;2023-08-17T10:02:36;25.60;79.30
2539;DHT22;1280;49.760;9.664;2023-08-17T10:05:06;25.60;79.30
2539;DHT22;1280;49.760;9.664;2023-08-17T10:07:41;25.60;79.20
2539;DHT22;1280;49.760;9.664;2023-08-17T10:10:12;25.60;79.10
2539;DHT22;1280;49.760;9.664;2023-08-17T10:12:45;25.70;79.10
2539;DHT22;1280;49.760;9.664;2023-08-17T10:15:18;25.70;79.10
2539;DHT22;1280;49.760;9.664;2023-08-17T10:17:55;25.70;79.10
2539;DHT22;1280;49.760;9.664;2023-08-17T10:20:29;25.80;79.00
2539;DHT22;1280;49.760;9.664;2023-08-17T10:23:07;25.80;78.90
2539;DHT22;1280;49.760;9.664;2023-08-17T10:25:38;25.80;78.90
2539;DHT22;1280;49.760;9.664;2023-08-17T10:28:09;25.90;79.00
2539;DHT22;1280;49.760;9.664;2023-08-17T10:30:37;25.90;79.00
2539;DHT22;1280;49.760;9.664;2023-08-17T10:33:06;26.00;78.80
2539;DHT22;1280;49.760;9.664;2023-08-17T10:35:37;26.00;78.80
2539;DHT22;1280;49.760;9.664;2023-08-17T10:38:06;26.10;78.70
2539;DHT22;1280;49.760;9.664;2023-08-17T10:40:39;26.10;78.80
2539;DHT22;1280;49.760;9.664;2023-08-17T10:43:07;26.20;78.70
2539;DHT22;1280;49.760;9.664;2023-08-17T10:45:35;26.30;78.60
2539;DHT22;1280;49.760;9.664;2023-08-17T10:48:24;26.30;78.60
2539;DHT22;1280;49.760;9.664;2023-08-17T10:51:01;26.40;78.50
2539;DHT22;1280;49.760;9.664;2023-08-17T10:53:36;26.40;78.50
2539;DHT22;1280;49.760;9.664;2023-08-17T10:56:12;26.50;78.70
2539;DHT22;1280;49.760;9.664;2023-08-17T10:58:43;26.50;78.70
2539;DHT22;1280;49.760;9.664;2023-08-17T11:01:12;26.60;78.60
2539;DHT22;1280;49.760;9.664;2023-08-17T11:03:41;26.60;78.10
2539;DHT22;1280;49.760;9.664;2023-08-17T11:06:18;26.70;77.80
2539;DHT22;1280;49.760;9.664;2023-08-17T11:08:55;26.70;77.60
2539;DHT22;1280;49.760;9.664;2023-08-17T11:11:30;26.70;77.20
2539;DHT22;1280;49.760;9.664;2023-08-17T11:13:59;26.80;77.20
2539;DHT22;1280;49.760;9.664;2023-08-17T11:16:27;26.80;77.20
2539;DHT22;1280;49.760;9.664;2023-08-17T11:18:55;26.80;77.10
2539;DHT22;1280;49.760;9.664;2023-08-17T11:21:27;26.90;77.10
2539;DHT22;1280;49.760;9.664;2023-08-17T11:23:57;27.00;77.00
2539;DHT22;1280;49.760;9.664;2023-08-17T11:26:26;27.00;76.90
2539;DHT22;1280;49.760;9.664;2023-08-17T11:28:54;27.10;76.80
2539;DHT22;1280;49.760;9.664;2023-08-17T11:31:23;27.10;76.70
2539;DHT22;1280;49.760;9.664;2023-08-17T11:33:51;27.10;76.40
2539;DHT22;1280;49.760;9.664;2023-08-17T11:36:22;27.10;76.40
2539;DHT22;1280;49.760;9.664;2023-08-17T11:38:52;27.20;76.40
2539;DHT22;1280;49.760;9.664;2023-08-17T11:41:20;27.20;76.10
2539;DHT22;1280;49.760;9.664;2023-08-17T11:43:50;27.30;75.80
2539;DHT22;1280;49.760;9.664;2023-08-17T11:53:09;27.40;75.50
2539;DHT22;1280;49.760;9.664;2023-08-17T11:55:46;27.40;75.40
2539;DHT22;1280;49.760;9.664;2023-08-17T11:58:14;27.40;75.50
2539;DHT22;1280;49.760;9.664;2023-08-17T12:00:44;27.50;75.70
2539;DHT22;1280;49.760;9.664;2023-08-17T12:03:16;27.60;75.60
2539;DHT22;1280;49.760;9.664;2023-08-17T12:05:44;27.60;75.30
2539;DHT22;1280;49.760;9.664;2023-08-17T12:08:13;27.70;75.20
2539;DHT22;1280;49.760;9.664;2023-08-17T12:17:23;27.80;74.40
2539;DHT22;1280;49.760;9.664;2023-08-17T12:19:54;27.80;74.60
2539;DHT22;1280;49.760;9.664;2023-08-17T12:22:24;27.80;74.40
2539;DHT22;1280;49.760;9.664;2023-08-17T12:24:53;27.80;74.40
2539;DHT22;1280;49.760;9.664;2023-08-17T12:27:22;27.90;74.40
2539;DHT22;1280;49.760;9.664;2023-08-17T12:29:51;27.90;74.10
2539;DHT22;1280;49.760;9.664;2023-08-17T12:32:20;27.90;73.80
2539;DHT22;1280;49.760;9.664;2023-08-17T12:34:49;27.90;73.60
2539;DHT22;1280;49.760;9.664;2023-08-17T12:37:19;27.90;73.40
2539;DHT22;1280;49.760;9.664;2023-08-17T12:39:47;27.90;73.40
2539;DHT22;1280;49.760;9.664;2023-08-17T12:42:16;27.90;73.50
2539;DHT22;1280;49.760;9.664;2023-08-17T12:44:45;27.90;73.40
2539;DHT22;1280;49.760;9.664;2023-08-17T12:47:13;27.90;73.30
2539;DHT22;1280;49.760;9.664;2023-08-17T12:49:41;27.90;73.20
2539;DHT22;1280;49.760;9.664;2023-08-17T12:52:10;27.90;73.10
2539;DHT22;1280;49.760;9.664;2023-08-17T12:54:38;28.00;73.10
2539;DHT22;1280;49.760;9.664;2023-08-17T12:57:06;28.00;73.10
2539;DHT22;1280;49.760;9.664;2023-08-17T12:59:38;28.00;72.90
2539;DHT22;1280;49.760;9.664;2023-08-17T13:02:06;28.10;72.90
2539;DHT22;1280;49.760;9.664;2023-08-17T13:04:34;28.10;73.00
2539;DHT22;1280;49.760;9.664;2023-08-17T13:07:03;28.20;73.00
2539;DHT22;1280;49.760;9.664;2023-08-17T13:09:32;28.30;72.90
2539;DHT22;1280;49.760;9.664;2023-08-17T13:12:01;28.40;72.70
2539;DHT22;1280;49.760;9.664;2023-08-17T13:14:29;28.40;72.60
2539;DHT22;1280;49.760;9.664;2023-08-17T13:16:57;28.50;72.50
2539;DHT22;1280;49.760;9.664;2023-08-17T13:19:25;28.50;72.20
2539;DHT22;1280;49.760;9.664;2023-08-17T13:21:53;28.50;72.10
2539;DHT22;1280;49.760;9.664;2023-08-17T13:24:21;28.50;71.90
2539;DHT22;1280;49.760;9.664;2023-08-17T13:26:50;28.50;71.80
2539;DHT22;1280;49.760;9.664;2023-08-17T13:29:21;28.60;71.50
2539;DHT22;1280;49.760;9.664;2023-08-17T13:31:49;28.60;71.30
2539;DHT22;1280;49.760;9.664;2023-08-17T13:34:17;28.60;71.30
2539;DHT22;1280;49.760;9.664;2023-08-17T13:36:45;28.60;71.10
2539;DHT22;1280;49.760;9.664;2023-08-17T13:39:13;28.60;71.00
2539;DHT22;1280;49.760;9.664;2023-08-17T13:41:42;28.60;70.80
2539;DHT22;1280;49.760;9.664;2023-08-17T13:44:11;28.60;70.50
2539;DHT22;1280;49.760;9.664;2023-08-17T13:46:39;28.60;70.20
2539;DHT22;1280;49.760;9.664;2023-08-17T13:49:07;28.60;70.20
2539;DHT22;1280;49.760;9.664;2023-08-17T13:51:35;28.60;69.90
2539;DHT22;1280;49.760;9.664;2023-08-17T13:54:04;28.60;69.90
2539;DHT22;1280;49.760;9.664;2023-08-17T13:56:32;28.60;69.60
2539;DHT22;1280;49.760;9.664;2023-08-17T13:59:00;28.60;69.60
2539;DHT22;1280;49.760;9.664;2023-08-17T14:01:30;28.60;69.50
2539;DHT22;1280;49.760;9.664;2023-08-17T14:03:58;28.50;69.30
2539;DHT22;1280;49.760;9.664;2023-08-17T14:06:27;28.50;69.30
2539;DHT22;1280;49.760;9.664;2023-08-17T14:08:55;28.50;69.30
2539;DHT22;1280;49.760;9.664;2023-08-17T14:11:25;28.50;69.20
2539;DHT22;1280;49.760;9.664;2023-08-17T14:13:53;28.50;69.20
2539;DHT22;1280;49.760;9.664;2023-08-17T14:16:20;28.50;69.10
2539;DHT22;1280;49.760;9.664;2023-08-17T14:18:50;28.40;69.20
2539;DHT22;1280;49.760;9.664;2023-08-17T14:21:18;28.40;69.30
2539;DHT22;1280;49.760;9.664;2023-08-17T14:23:46;28.40;69.40
2539;DHT22;1280;49.760;9.664;2023-08-17T14:26:14;28.40;69.40
2539;DHT22;1280;49.760;9.664;2023-08-17T14:28:42;28.30;69.50
2539;DHT22;1280;49.760;9.664;2023-08-17T14:31:11;28.30;69.70
2539;DHT22;1280;49.760;9.664;2023-08-17T14:33:42;28.30;69.90
2539;DHT22;1280;49.760;9.664;2023-08-17T14:36:12;28.20;70.30
2539;DHT22;1280;49.760;9.664;2023-08-17T14:38:45;28.20;70.60
2539;DHT22;1280;49.760;9.664;2023-08-17T14:41:13;28.20;70.90
2539;DHT22;1280;49.760;9.664;2023-08-17T14:43:41;28.20;71.20
2539;DHT22;1280;49.760;9.664;2023-08-17T14:46:09;28.20;71.50
2539;DHT22;1280;49.760;9.664;2023-08-17T14:48:40;28.10;71.70
2539;DHT22;1280;49.760;9.664;2023-08-17T14:51:09;28.10;72.10
2539;DHT22;1280;49.760;9.664;2023-08-17T14:53:38;28.10;72.30
2539;DHT22;1280;49.760;9.664;2023-08-17T14:56:06;28.10;72.60
2539;DHT22;1280;49.760;9.664;2023-08-17T14:58:35;28.10;72.70
2539;DHT22;1280;49.760;9.664;2023-08-17T15:01:04;28.00;72.80
2539;DHT22;1280;49.760;9.664;2023-08-17T15:03:32;28.00;72.90
2539;DHT22;1280;49.760;9.664;2023-08-17T15:06:00;27.90;73.10
2539;DHT22;1280;49.760;9.664;2023-08-17T15:08:28;27.90;73.30
2539;DHT22;1280;49.760;9.664;2023-08-17T15:10:57;27.90;73.40
2539;DHT22;1280;49.760;9.664;2023-08-17T15:13:28;27.80;73.60
2539;DHT22;1280;49.760;9.664;2023-08-17T15:15:56;27.80;73.80
2539;DHT22;1280;49.760;9.664;2023-08-17T15:18:24;27.80;73.90
2539;DHT22;1280;49.760;9.664;2023-08-17T15:20:54;27.80;74.10
2539;DHT22;1280;49.760;9.664;2023-08-17T15:23:22;27.80;74.30
2539;DHT22;1280;49.760;9.664;2023-08-17T15:25:50;27.80;74.50
2539;DHT22;1280;49.760;9.664;2023-08-17T15:28:20;27.80;74.60
2539;DHT22;1280;49.760;9.664;2023-08-17T15:30:50;27.80;74.70
2539;DHT22;1280;49.760;9.664;2023-08-17T15:33:27;27.80;74.80
2539;DHT22;1280;49.760;9.664;2023-08-17T15:35:55;27.80;75.00
2539;DHT22;1280;49.760;9.664;2023-08-17T15:38:24;27.90;75.10
2539;DHT22;1280;49.760;9.664;2023-08-17T15:40:53;27.90;75.20
2539;DHT22;1280;49.760;9.664;2023-08-17T15:43:23;27.90;75.30
2539;DHT22;1280;49.760;9.664;2023-08-17T15:45:51;27.90;75.40
2539;DHT22;1280;49.760;9.664;2023-08-17T15:48:21;27.90;75.40
2539;DHT22;1280;49.760;9.664;2023-08-17T15:50:49;28.00;75.40
2539;DHT22;1280;49.760;9.664;2023-08-17T15:53:17;28.00;75.30
2539;DHT22;1280;49.760;9.664;2023-08-17T15:55:45;28.10;75.30
2539;DHT22;1280;49.760;9.664;2023-08-17T15:58:13;28.10;75.20
2539;DHT22;1280;49.760;9.664;2023-08-17T16:00:42;28.00;75.30
2539;DHT22;1280;49.760;9.664;2023-08-17T16:03:10;28.00;75.30
2539;DHT22;1280;49.760;9.664;2023-08-17T16:05:39;28.10;75.30
2539;DHT22;1280;49.760;9.664;2023-08-17T16:08:07;28.10;75.10
2539;DHT22;1280;49.760;9.664;2023-08-17T16:10:35;28.00;75.30
2539;DHT22;1280;49.760;9.664;2023-08-17T16:13:03;28.10;75.20
2539;DHT22;1280;49.760;9.664;2023-08-17T16:15:31;28.10;75.30
2539;DHT22;1280;49.760;9.664;2023-08-17T16:18:00;28.10;75.30
2539;DHT22;1280;49.760;9.664;2023-08-17T16:20:28;28.10;75.10
2539;DHT22;1280;49.760;9.664;2023-08-17T16:23:01;28.10;75.20
2539;DHT22;1280;49.760;9.664;2023-08-17T16:25:29;28.10;75.20
2539;DHT22;1280;49.760;9.664;2023-08-17T16:27:59;28.10;75.30
2539;DHT22;1280;49.760;9.664;2023-08-17T16:30:27;28.10;75.30
2539;DHT22;1280;49.760;9.664;2023-08-17T16:32:55;28.10;75.20